Willow River, Canada
Current Conditions -  °F | °C
As of 10:15 PM on Sunday 21 Dec 2014 (Local Time) from CYXS Reporting Station
Light Rain Light Rain  
Wind Chill: 25°   Ceiling: 5500
Heat Index: 34°   Visibility: 9mi
Dew Point: 32°   Wind: 13mph
Humidity: 93%   Direction: 180°S
Pressure: 29.73"   Gusts: 18mph
Location:  54.07°N, 122.47°W
Report Text: CYXS 220615Z AUTO 18011G16KT 9SM -RA FEW043 OVC055 01/00 A2973 RMK SLP097
Loading
Personal Weather Stations






























Interactive Weather Map New forecast layout! Learn more

10-Day Weather Forecast

Advertisements
Track Severe Weather on mobile